sensor_id;sensor_type;location;lat;lon;timestamp;pressure;altitude;pressure_sealevel;temperature;humidity
59391;BME280;53405;57.012;40.984;2022-12-18T00:01:45;100176.63;;;-5.98;90.25
59391;BME280;53405;57.012;40.984;2022-12-18T00:04:33;100168.94;;;-5.98;90.21
59391;BME280;53405;57.012;40.984;2022-12-18T00:07:21;100165.47;;;-5.97;90.38
59391;BME280;53405;57.012;40.984;2022-12-18T00:10:08;100172.34;;;-5.98;89.93
59391;BME280;53405;57.012;40.984;2022-12-18T00:12:56;100168.03;;;-5.97;90.13
59391;BME280;53405;57.012;40.984;2022-12-18T00:15:43;100168.19;;;-6.01;89.76
59391;BME280;53405;57.012;40.984;2022-12-18T00:18:31;100158.75;;;-6.00;90.17
59391;BME280;53405;57.012;40.984;2022-12-18T00:21:20;100139.41;;;-6.07;90.32
59391;BME280;53405;57.012;40.984;2022-12-18T00:24:09;100152.00;;;-6.03;90.15
59391;BME280;53405;57.012;40.984;2022-12-18T00:26:57;100140.03;;;-6.02;90.81
59391;BME280;53405;57.012;40.984;2022-12-18T00:29:45;100144.19;;;-6.00;90.69
59391;BME280;53405;57.012;40.984;2022-12-18T00:32:32;100142.75;;;-6.05;90.46
59391;BME280;53405;57.012;40.984;2022-12-18T00:35:21;100114.47;;;-6.04;90.86
59391;BME280;53405;57.012;40.984;2022-12-18T00:38:09;100113.63;;;-6.04;90.89
59391;BME280;53405;57.012;40.984;2022-12-18T00:40:57;100114.47;;;-6.04;90.67
59391;BME280;53405;57.012;40.984;2022-12-18T00:43:44;100093.03;;;-6.03;90.51
59391;BME280;53405;57.012;40.984;2022-12-18T00:46:32;100098.16;;;-6.03;90.40
59391;BME280;53405;57.012;40.984;2022-12-18T00:49:20;100076.97;;;-6.06;90.58
59391;BME280;53405;57.012;40.984;2022-12-18T00:52:09;100050.91;;;-6.16;90.97
59391;BME280;53405;57.012;40.984;2022-12-18T00:54:57;100047.22;;;-6.10;90.80
59391;BME280;53405;57.012;40.984;2022-12-18T00:57:46;100033.66;;;-6.12;91.00
59391;BME280;53405;57.012;40.984;2022-12-18T01:00:35;100023.47;;;-6.14;91.04
59391;BME280;53405;57.012;40.984;2022-12-18T01:03:24;100008.22;;;-6.17;91.37
59391;BME280;53405;57.012;40.984;2022-12-18T01:06:13;99982.88;;;-6.23;91.31
59391;BME280;53405;57.012;40.984;2022-12-18T01:09:02;99980.16;;;-6.20;91.73
59391;BME280;53405;57.012;40.984;2022-12-18T01:11:50;99967.34;;;-6.20;91.44
59391;BME280;53405;57.012;40.984;2022-12-18T01:14:37;99950.47;;;-6.24;91.79
59391;BME280;53405;57.012;40.984;2022-12-18T01:17:25;99938.53;;;-6.25;91.72
59391;BME280;53405;57.012;40.984;2022-12-18T01:20:13;99929.09;;;-6.25;91.61
59391;BME280;53405;57.012;40.984;2022-12-18T01:23:01;99926.38;;;-6.22;91.34
59391;BME280;53405;57.012;40.984;2022-12-18T01:25:49;99915.47;;;-6.25;91.50
59391;BME280;53405;57.012;40.984;2022-12-18T01:28:37;99908.81;;;-6.29;92.11
59391;BME280;53405;57.012;40.984;2022-12-18T01:31:29;99912.22;;;-6.29;92.01
59391;BME280;53405;57.012;40.984;2022-12-18T01:34:17;99906.16;;;-6.28;91.99
59391;BME280;53405;57.012;40.984;2022-12-18T01:37:05;99899.56;;;-6.32;91.83
59391;BME280;53405;57.012;40.984;2022-12-18T01:39:53;99906.31;;;-6.31;91.69
59391;BME280;53405;57.012;40.984;2022-12-18T01:42:41;99910.34;;;-6.25;91.50
59391;BME280;53405;57.012;40.984;2022-12-18T01:45:32;99899.41;;;-6.29;91.48
59391;BME280;53405;57.012;40.984;2022-12-18T01:48:19;99902.78;;;-6.28;91.39
59391;BME280;53405;57.012;40.984;2022-12-18T01:51:09;99891.94;;;-6.33;91.70
59391;BME280;53405;57.012;40.984;2022-12-18T01:53:59;99880.59;;;-6.29;91.88
59391;BME280;53405;57.012;40.984;2022-12-18T01:56:47;99874.66;;;-6.30;91.74
59391;BME280;53405;57.012;40.984;2022-12-18T01:59:35;99865.31;;;-6.31;91.95
59391;BME280;53405;57.012;40.984;2022-12-18T02:02:22;99865.22;;;-6.29;92.13
59391;BME280;53405;57.012;40.984;2022-12-18T02:05:13;99859.28;;;-6.30;92.27
59391;BME280;53405;57.012;40.984;2022-12-18T02:08:20;99848.97;;;-6.28;92.25
59391;BME280;53405;57.012;40.984;2022-12-18T02:17:19;99877.16;;;-6.28;92.13
59391;BME280;53405;57.012;40.984;2022-12-18T02:20:16;99891.56;;;-6.26;91.94
59391;BME280;53405;57.012;40.984;2022-12-18T02:26:34;99887.94;;;-6.22;91.63
59391;BME280;53405;57.012;40.984;2022-12-18T02:29:29;99868.00;;;-6.34;91.79
59391;BME280;53405;57.012;40.984;2022-12-18T02:32:31;99866.91;;;-6.28;91.94
59391;BME280;53405;57.012;40.984;2022-12-18T02:35:24;99866.81;;;-6.27;91.98
59391;BME280;53405;57.012;40.984;2022-12-18T02:38:17;99835.91;;;-6.41;92.01
59391;BME280;53405;57.012;40.984;2022-12-18T02:41:08;99852.41;;;-6.29;92.04
59391;BME280;53405;57.012;40.984;2022-12-18T02:43:59;99846.41;;;-6.28;91.80
59391;BME280;53405;57.012;40.984;2022-12-18T02:46:52;99834.47;;;-6.29;92.27
59391;BME280;53405;57.012;40.984;2022-12-18T02:55:54;99798.06;;;-6.36;92.36
59391;BME280;53405;57.012;40.984;2022-12-18T02:59:00;99798.13;;;-6.38;92.37
59391;BME280;53405;57.012;40.984;2022-12-18T03:02:22;99796.47;;;-6.39;92.32
59391;BME280;53405;57.012;40.984;2022-12-18T03:05:16;99783.66;;;-6.39;92.03
59391;BME280;53405;57.012;40.984;2022-12-18T03:08:10;99780.41;;;-6.42;91.75
59391;BME280;53405;57.012;40.984;2022-12-18T03:11:07;99772.00;;;-6.44;92.21
59391;BME280;53405;57.012;40.984;2022-12-18T03:13:58;99746.06;;;-6.56;92.28
59391;BME280;53405;57.012;40.984;2022-12-18T03:16:49;99758.44;;;-6.46;92.53
59391;BME280;53405;57.012;40.984;2022-12-18T03:19:40;99754.13;;;-6.46;92.44
59391;BME280;53405;57.012;40.984;2022-12-18T03:22:32;99745.63;;;-6.46;92.50
59391;BME280;53405;57.012;40.984;2022-12-18T03:25:22;99742.34;;;-6.50;92.35
59391;BME280;53405;57.012;40.984;2022-12-18T03:28:17;99722.84;;;-6.52;92.59
59391;BME280;53405;57.012;40.984;2022-12-18T03:31:11;99702.75;;;-6.60;92.50
59391;BME280;53405;57.012;40.984;2022-12-18T03:34:07;99711.84;;;-6.55;92.62
59391;BME280;53405;57.012;40.984;2022-12-18T03:37:02;99686.66;;;-6.64;92.65
59391;BME280;53405;57.012;40.984;2022-12-18T03:39:51;99698.34;;;-6.58;92.06
59391;BME280;53405;57.012;40.984;2022-12-18T03:42:48;99678.75;;;-6.59;92.80
59391;BME280;53405;57.012;40.984;2022-12-18T03:45:43;99677.03;;;-6.59;92.61
59391;BME280;53405;57.012;40.984;2022-12-18T03:48:40;99657.97;;;-6.70;93.06
59391;BME280;53405;57.012;40.984;2022-12-18T03:54:26;99658.63;;;-6.67;93.11
59391;BME280;53405;57.012;40.984;2022-12-18T03:57:23;99662.94;;;-6.67;93.01
59391;BME280;53405;57.012;40.984;2022-12-18T04:00:16;99652.78;;;-6.69;92.75
59391;BME280;53405;57.012;40.984;2022-12-18T04:03:23;99651.03;;;-6.68;93.01
59391;BME280;53405;57.012;40.984;2022-12-18T04:06:13;99636.34;;;-6.65;92.84
59391;BME280;53405;57.012;40.984;2022-12-18T04:09:04;99638.22;;;-6.68;92.40
59391;BME280;53405;57.012;40.984;2022-12-18T04:11:56;99632.19;;;-6.67;92.53
59391;BME280;53405;57.012;40.984;2022-12-18T04:14:45;99631.31;;;-6.66;92.42
59391;BME280;53405;57.012;40.984;2022-12-18T04:17:33;99638.00;;;-6.64;92.23
59391;BME280;53405;57.012;40.984;2022-12-18T04:20:21;99641.31;;;-6.62;92.07
59391;BME280;53405;57.012;40.984;2022-12-18T04:23:09;99647.94;;;-6.58;91.78
59391;BME280;53405;57.012;40.984;2022-12-18T04:25:57;99648.16;;;-6.62;92.20
59391;BME280;53405;57.012;40.984;2022-12-18T04:29:06;99644.78;;;-6.63;91.85
59391;BME280;53405;57.012;40.984;2022-12-18T04:31:53;99629.41;;;-6.63;91.86
59391;BME280;53405;57.012;40.984;2022-12-18T04:34:42;99629.50;;;-6.64;92.04
59391;BME280;53405;57.012;40.984;2022-12-18T04:37:30;99638.75;;;-6.62;91.25
59391;BME280;53405;57.012;40.984;2022-12-18T04:40:19;99612.47;;;-6.83;91.67
59391;BME280;53405;57.012;40.984;2022-12-18T04:43:07;99650.72;;;-6.62;91.45
59391;BME280;53405;57.012;40.984;2022-12-18T04:46:02;99640.41;;;-6.61;91.82
59391;BME280;53405;57.012;40.984;2022-12-18T04:48:50;99628.66;;;-6.65;91.35
59391;BME280;53405;57.012;40.984;2022-12-18T04:51:37;99614.13;;;-6.64;91.63
59391;BME280;53405;57.012;40.984;2022-12-18T04:54:25;99611.56;;;-6.64;91.48
59391;BME280;53405;57.012;40.984;2022-12-18T04:57:12;99586.47;;;-6.75;91.44
59391;BME280;53405;57.012;40.984;2022-12-18T05:00:00;99601.38;;;-6.66;91.50
59391;BME280;53405;57.012;40.984;2022-12-18T05:02:48;99602.13;;;-6.64;91.11
59391;BME280;53405;57.012;40.984;2022-12-18T05:05:36;99602.97;;;-6.63;91.37
59391;BME280;53405;57.012;40.984;2022-12-18T05:08:23;99606.44;;;-6.64;91.38
59391;BME280;53405;57.012;40.984;2022-12-18T05:11:13;99597.78;;;-6.62;91.37
59391;BME280;53405;57.012;40.984;2022-12-18T05:14:03;99596.78;;;-6.59;91.41
59391;BME280;53405;57.012;40.984;2022-12-18T05:16:51;99590.16;;;-6.63;90.72
59391;BME280;53405;57.012;40.984;2022-12-18T05:19:40;99571.97;;;-6.75;90.92
59391;BME280;53405;57.012;40.984;2022-12-18T05:22:27;99595.28;;;-6.63;90.74
59391;BME280;53405;57.012;40.984;2022-12-18T05:25:15;99609.66;;;-6.61;91.09
59391;BME280;53405;57.012;40.984;2022-12-18T05:28:02;99618.03;;;-6.57;91.10
59391;BME280;53405;57.012;40.984;2022-12-18T05:30:52;99606.94;;;-6.58;90.85
59391;BME280;53405;57.012;40.984;2022-12-18T05:33:40;99599.25;;;-6.58;90.50
59391;BME280;53405;57.012;40.984;2022-12-18T05:36:28;99600.09;;;-6.57;90.37
59391;BME280;53405;57.012;40.984;2022-12-18T05:39:18;99598.81;;;-6.66;90.67
59391;BME280;53405;57.012;40.984;2022-12-18T05:42:05;99611.16;;;-6.57;90.35
59391;BME280;53405;57.012;40.984;2022-12-18T05:44:53;99622.16;;;-6.55;90.30
59391;BME280;53405;57.012;40.984;2022-12-18T05:47:41;99622.31;;;-6.58;90.00
59391;BME280;53405;57.012;40.984;2022-12-18T05:50:28;99623.00;;;-6.54;89.84
59391;BME280;53405;57.012;40.984;2022-12-18T05:53:21;99617.81;;;-6.52;89.98
59391;BME280;53405;57.012;40.984;2022-12-18T05:56:16;99616.97;;;-6.53;89.80
59391;BME280;53405;57.012;40.984;2022-12-18T05:59:05;99611.84;;;-6.53;90.50
59391;BME280;53405;57.012;40.984;2022-12-18T06:01:54;99639.19;;;-6.54;90.53
59391;BME280;53405;57.012;40.984;2022-12-18T06:04:41;99634.06;;;-6.54;89.91
59391;BME280;53405;57.012;40.984;2022-12-18T06:07:29;99623.91;;;-6.55;90.40
59391;BME280;53405;57.012;40.984;2022-12-18T06:10:16;99629.03;;;-6.55;89.81
59391;BME280;53405;57.012;40.984;2022-12-18T06:13:05;99633.25;;;-6.54;89.83
59391;BME280;53405;57.012;40.984;2022-12-18T06:15:53;99631.59;;;-6.55;89.77
59391;BME280;53405;57.012;40.984;2022-12-18T06:18:41;99646.00;;;-6.52;90.15
59391;BME280;53405;57.012;40.984;2022-12-18T06:21:29;99647.53;;;-6.50;89.67
59391;BME280;53405;57.012;40.984;2022-12-18T06:24:17;99651.94;;;-6.52;89.46
59391;BME280;53405;57.012;40.984;2022-12-18T06:27:04;99656.25;;;-6.52;89.73
59391;BME280;53405;57.012;40.984;2022-12-18T06:29:52;99660.50;;;-6.53;89.82
59391;BME280;53405;57.012;40.984;2022-12-18T06:32:39;99671.75;;;-6.56;90.33
59391;BME280;53405;57.012;40.984;2022-12-18T06:35:44;99667.38;;;-6.54;89.86
59391;BME280;53405;57.012;40.984;2022-12-18T06:38:47;99644.41;;;-6.55;90.11
59391;BME280;53405;57.012;40.984;2022-12-18T06:41:49;99644.47;;;-6.57;90.05
59391;BME280;53405;57.012;40.984;2022-12-18T06:44:52;99643.72;;;-6.59;90.38
59391;BME280;53405;57.012;40.984;2022-12-18T06:47:53;99653.97;;;-6.59;90.25
59391;BME280;53405;57.012;40.984;2022-12-18T06:50:43;99645.28;;;-6.56;89.75
59391;BME280;53405;57.012;40.984;2022-12-18T06:53:32;99660.00;;;-6.60;89.72
59391;BME280;53405;57.012;40.984;2022-12-18T06:56:19;99654.06;;;-6.60;89.80
59391;BME280;53405;57.012;40.984;2022-12-18T06:59:08;99648.78;;;-6.57;89.49
59391;BME280;53405;57.012;40.984;2022-12-18T07:01:55;99642.44;;;-6.50;88.66
59391;BME280;53405;57.012;40.984;2022-12-18T07:04:43;99645.22;;;-6.55;88.86
59391;BME280;53405;57.012;40.984;2022-12-18T07:07:30;99656.47;;;-6.57;88.87
59391;BME280;53405;57.012;40.984;2022-12-18T07:10:18;99629.56;;;-6.66;88.89
59391;BME280;53405;57.012;40.984;2022-12-18T07:13:06;99648.72;;;-6.56;88.52
59391;BME280;53405;57.012;40.984;2022-12-18T07:15:53;99644.31;;;-6.54;88.41
59391;BME280;53405;57.012;40.984;2022-12-18T07:18:41;99636.72;;;-6.55;88.61
59391;BME280;53405;57.012;40.984;2022-12-18T07:21:29;99640.41;;;-6.61;88.65
59391;BME280;53405;57.012;40.984;2022-12-18T07:24:17;99646.22;;;-6.57;88.91
59391;BME280;53405;57.012;40.984;2022-12-18T07:27:04;99640.16;;;-6.56;87.96
59391;BME280;53405;57.012;40.984;2022-12-18T07:29:53;99631.50;;;-6.54;88.89
59391;BME280;53405;57.012;40.984;2022-12-18T07:32:41;99637.31;;;-6.50;88.42
59391;BME280;53405;57.012;40.984;2022-12-18T07:35:28;99650.13;;;-6.50;88.45
59391;BME280;53405;57.012;40.984;2022-12-18T07:38:16;99638.22;;;-6.51;88.48
59391;BME280;53405;57.012;40.984;2022-12-18T07:41:07;99637.22;;;-6.48;88.40
59391;BME280;53405;57.012;40.984;2022-12-18T07:43:55;99647.53;;;-6.50;88.44
59391;BME280;53405;57.012;40.984;2022-12-18T07:46:42;99637.38;;;-6.51;88.96
59391;BME280;53405;57.012;40.984;2022-12-18T07:49:30;99643.72;;;-6.59;88.89
59391;BME280;53405;57.012;40.984;2022-12-18T07:52:18;99652.09;;;-6.55;88.97
59391;BME280;53405;57.012;40.984;2022-12-18T07:55:08;99634.59;;;-6.64;89.06
59391;BME280;53405;57.012;40.984;2022-12-18T07:57:56;99654.72;;;-6.57;89.49
59391;BME280;53405;57.012;40.984;2022-12-18T08:00:46;99664.81;;;-6.54;89.40
59391;BME280;53405;57.012;40.984;2022-12-18T08:03:34;99642.72;;;-6.56;88.74
59391;BME280;53405;57.012;40.984;2022-12-18T08:06:22;99660.75;;;-6.58;89.19
59391;BME280;53405;57.012;40.984;2022-12-18T08:09:09;99671.69;;;-6.54;88.86
59391;BME280;53405;57.012;40.984;2022-12-18T08:11:57;99664.50;;;-6.47;89.18
59391;BME280;53405;57.012;40.984;2022-12-18T08:14:45;99674.38;;;-6.40;88.43
59391;BME280;53405;57.012;40.984;2022-12-18T08:17:33;99681.28;;;-6.42;88.61
59391;BME280;53405;57.012;40.984;2022-12-18T08:20:20;99665.84;;;-6.40;88.12
59391;BME280;53405;57.012;40.984;2022-12-18T08:23:08;99664.28;;;-6.43;88.71
59391;BME280;53405;57.012;40.984;2022-12-18T08:25:58;99676.72;;;-6.35;88.75
59391;BME280;53405;57.012;40.984;2022-12-18T08:28:45;99673.06;;;-6.31;88.38
59391;BME280;53405;57.012;40.984;2022-12-18T08:31:34;99673.75;;;-6.27;88.27
59391;BME280;53405;57.012;40.984;2022-12-18T08:34:21;99675.41;;;-6.26;87.92
59391;BME280;53405;57.012;40.984;2022-12-18T08:37:09;99674.88;;;-6.33;88.19
59391;BME280;53405;57.012;40.984;2022-12-18T08:39:57;99672.09;;;-6.28;89.04
59391;BME280;53405;57.012;40.984;2022-12-18T08:42:44;99672.59;;;-6.22;87.85
59391;BME280;53405;57.012;40.984;2022-12-18T08:45:51;99667.03;;;-6.30;87.94
59391;BME280;53405;57.012;40.984;2022-12-18T08:48:38;99674.66;;;-6.28;87.74
59391;BME280;53405;57.012;40.984;2022-12-18T08:51:26;99685.06;;;-6.31;87.14
59391;BME280;53405;57.012;40.984;2022-12-18T08:54:14;99680.75;;;-6.31;87.38
59391;BME280;53405;57.012;40.984;2022-12-18T08:57:02;99689.28;;;-6.30;88.03
59391;BME280;53405;57.012;40.984;2022-12-18T08:59:49;99689.22;;;-6.29;87.01
59391;BME280;53405;57.012;40.984;2022-12-18T09:02:37;99700.53;;;-6.33;87.12
59391;BME280;53405;57.012;40.984;2022-12-18T09:05:25;99696.13;;;-6.31;87.06
59391;BME280;53405;57.012;40.984;2022-12-18T09:08:12;99709.81;;;-6.30;87.06
59391;BME280;53405;57.012;40.984;2022-12-18T09:11:00;99713.94;;;-6.28;87.09
59391;BME280;53405;57.012;40.984;2022-12-18T09:13:48;99725.03;;;-6.27;86.80
59391;BME280;53405;57.012;40.984;2022-12-18T09:16:36;99728.34;;;-6.25;86.50
59391;BME280;53405;57.012;40.984;2022-12-18T09:19:23;99730.75;;;-6.22;86.85
59391;BME280;53405;57.012;40.984;2022-12-18T09:22:11;99729.81;;;-6.21;86.52
59391;BME280;53405;57.012;40.984;2022-12-18T09:24:58;99738.72;;;-6.11;86.89
59391;BME280;53405;57.012;40.984;2022-12-18T09:27:47;99735.09;;;-6.07;85.82
59391;BME280;53405;57.012;40.984;2022-12-18T09:30:37;99738.56;;;-6.08;86.01
59391;BME280;53405;57.012;40.984;2022-12-18T09:33:25;99743.53;;;-6.05;86.21
59391;BME280;53405;57.012;40.984;2022-12-18T09:36:15;99718.19;;;-6.11;86.63
59391;BME280;53405;57.012;40.984;2022-12-18T09:39:03;99734.72;;;-5.99;86.21
59391;BME280;53405;57.012;40.984;2022-12-18T09:41:56;99745.28;;;-5.89;86.41
59391;BME280;53405;57.012;40.984;2022-12-18T09:44:50;99742.81;;;-5.91;86.23
59391;BME280;53405;57.012;40.984;2022-12-18T09:47:39;99750.53;;;-5.75;86.03
59391;BME280;53405;57.012;40.984;2022-12-18T09:50:34;99751.44;;;-5.76;86.23
59391;BME280;53405;57.012;40.984;2022-12-18T09:53:31;99754.56;;;-5.71;86.20
59391;BME280;53405;57.012;40.984;2022-12-18T09:56:21;99746.63;;;-5.66;85.45
59391;BME280;53405;57.012;40.984;2022-12-18T09:59:22;99751.28;;;-5.73;85.11
59391;BME280;53405;57.012;40.984;2022-12-18T10:02:20;99753.00;;;-5.73;85.50
59391;BME280;53405;57.012;40.984;2022-12-18T10:05:12;99751.66;;;-5.81;84.95
59391;BME280;53405;57.012;40.984;2022-12-18T10:08:07;99747.84;;;-5.89;85.28
59391;BME280;53405;57.012;40.984;2022-12-18T10:11:21;99753.13;;;-5.92;86.14
59391;BME280;53405;57.012;40.984;2022-12-18T10:14:26;99754.53;;;-5.87;86.15
59391;BME280;53405;57.012;40.984;2022-12-18T10:20:36;99741.06;;;-5.90;85.46
59391;BME280;53405;57.012;40.984;2022-12-18T10:23:43;99723.53;;;-5.82;85.45
59391;BME280;53405;57.012;40.984;2022-12-18T10:26:35;99737.38;;;-5.69;85.29
59391;BME280;53405;57.012;40.984;2022-12-18T10:29:25;99742.84;;;-5.75;85.18
59391;BME280;53405;57.012;40.984;2022-12-18T10:32:26;99763.84;;;-5.68;85.34
59391;BME280;53405;57.012;40.984;2022-12-18T10:35:24;99772.75;;;-5.58;84.95
59391;BME280;53405;57.012;40.984;2022-12-18T10:44:20;99792.13;;;-5.52;84.52
59391;BME280;53405;57.012;40.984;2022-12-18T10:47:18;99787.72;;;-5.50;84.69
59391;BME280;53405;57.012;40.984;2022-12-18T10:50:25;99787.28;;;-5.58;84.08
59391;BME280;53405;57.012;40.984;2022-12-18T10:53:28;99803.94;;;-5.66;83.81
59391;BME280;53405;57.012;40.984;2022-12-18T10:56:19;99811.00;;;-5.71;84.50
59391;BME280;53405;57.012;40.984;2022-12-18T10:59:10;99814.94;;;-5.64;84.45
59391;BME280;53405;57.012;40.984;2022-12-18T11:01:58;99818.31;;;-5.63;84.98
59391;BME280;53405;57.012;40.984;2022-12-18T11:04:50;99811.09;;;-5.72;83.77
59391;BME280;53405;57.012;40.984;2022-12-18T11:07:49;99822.22;;;-5.72;83.41
59391;BME280;53405;57.012;40.984;2022-12-18T11:10:37;99837.22;;;-5.64;83.69
59391;BME280;53405;57.012;40.984;2022-12-18T11:13:29;99853.03;;;-5.56;84.48
59391;BME280;53405;57.012;40.984;2022-12-18T11:16:19;99851.59;;;-5.62;82.79
59391;BME280;53405;57.012;40.984;2022-12-18T11:22:24;99858.72;;;-5.67;83.27
59391;BME280;53405;57.012;40.984;2022-12-18T11:31:26;99858.13;;;-5.72;82.01
59391;BME280;53405;57.012;40.984;2022-12-18T11:34:28;99853.06;;;-5.73;82.27
59391;BME280;53405;57.012;40.984;2022-12-18T11:37:17;99858.44;;;-5.78;81.72
59391;BME280;53405;57.012;40.984;2022-12-18T11:40:18;99850.38;;;-5.88;82.06
59391;BME280;53405;57.012;40.984;2022-12-18T11:43:16;99833.44;;;-6.08;82.51
59391;BME280;53405;57.012;40.984;2022-12-18T11:46:13;99864.84;;;-5.87;82.11
59391;BME280;53405;57.012;40.984;2022-12-18T11:49:38;99872.53;;;-5.87;82.15
59391;BME280;53405;57.012;40.984;2022-12-18T11:52:39;99873.81;;;-5.78;83.14
59391;BME280;53405;57.012;40.984;2022-12-18T11:55:39;99871.41;;;-5.81;82.35
59391;BME280;53405;57.012;40.984;2022-12-18T12:01:45;99869.78;;;-6.00;82.08
59391;BME280;53405;57.012;40.984;2022-12-18T12:05:12;99885.81;;;-5.96;83.05
59391;BME280;53405;57.012;40.984;2022-12-18T12:20:20;99905.72;;;-5.84;82.00
59391;BME280;53405;57.012;40.984;2022-12-18T12:26:30;99927.16;;;-5.85;83.55
59391;BME280;53405;57.012;40.984;2022-12-18T12:33:10;99946.69;;;-5.82;82.57
59391;BME280;53405;57.012;40.984;2022-12-18T12:36:42;99952.91;;;-5.69;83.01
59391;BME280;53405;57.012;40.984;2022-12-18T12:39:35;99936.50;;;-5.66;82.41
59391;BME280;53405;57.012;40.984;2022-12-18T12:48:52;99958.78;;;-5.84;82.50
59391;BME280;53405;57.012;40.984;2022-12-18T12:51:45;99953.78;;;-5.87;82.72
59391;BME280;53405;57.012;40.984;2022-12-18T12:54:35;99937.03;;;-5.94;82.51
59391;BME280;53405;57.012;40.984;2022-12-18T12:57:30;99960.38;;;-5.82;81.89
59391;BME280;53405;57.012;40.984;2022-12-18T13:00:21;99968.59;;;-5.92;82.10
59391;BME280;53405;57.012;40.984;2022-12-18T13:03:27;99969.31;;;-5.90;82.42
59391;BME280;53405;57.012;40.984;2022-12-18T13:09:32;99976.00;;;-6.04;81.80
59391;BME280;53405;57.012;40.984;2022-12-18T13:12:20;99983.69;;;-6.04;82.02
59391;BME280;53405;57.012;40.984;2022-12-18T13:15:42;99980.91;;;-5.99;82.18
59391;BME280;53405;57.012;40.984;2022-12-18T13:18:31;99990.88;;;-5.94;81.99
59391;BME280;53405;57.012;40.984;2022-12-18T13:24:34;99994.16;;;-5.91;82.29
59391;BME280;53405;57.012;40.984;2022-12-18T13:45:42;100034.97;;;-6.04;81.00
59391;BME280;53405;57.012;40.984;2022-12-18T13:48:37;100047.28;;;-6.12;81.51
59391;BME280;53405;57.012;40.984;2022-12-18T13:51:26;100055.25;;;-6.18;81.43
59391;BME280;53405;57.012;40.984;2022-12-18T13:57:32;100073.13;;;-6.17;81.29
59391;BME280;53405;57.012;40.984;2022-12-18T14:00:26;100077.91;;;-6.09;82.44
59391;BME280;53405;57.012;40.984;2022-12-18T14:03:24;100078.72;;;-6.07;81.45
59391;BME280;53405;57.012;40.984;2022-12-18T14:06:13;100086.47;;;-6.08;81.06
59391;BME280;53405;57.012;40.984;2022-12-18T14:09:02;100093.47;;;-5.94;81.86
59391;BME280;53405;57.012;40.984;2022-12-18T14:11:51;100099.13;;;-5.86;82.08
59391;BME280;53405;57.012;40.984;2022-12-18T14:14:44;100073.09;;;-5.78;82.22
59391;BME280;53405;57.012;40.984;2022-12-18T14:17:36;100094.59;;;-5.81;81.38
59391;BME280;53405;57.012;40.984;2022-12-18T14:20:29;100100.88;;;-5.69;82.30
59391;BME280;53405;57.012;40.984;2022-12-18T14:23:39;100085.44;;;-5.87;81.69
59391;BME280;53405;57.012;40.984;2022-12-18T14:26:29;100119.22;;;-5.77;80.96
59391;BME280;53405;57.012;40.984;2022-12-18T14:29:26;100113.38;;;-5.81;81.33
59391;BME280;53405;57.012;40.984;2022-12-18T14:32:17;100123.44;;;-5.76;81.20
59391;BME280;53405;57.012;40.984;2022-12-18T14:35:13;100126.53;;;-5.69;81.42
59391;BME280;53405;57.012;40.984;2022-12-18T14:41:13;100122.28;;;-5.51;80.96
59391;BME280;53405;57.012;40.984;2022-12-18T14:44:06;100123.63;;;-5.62;80.23
59391;BME280;53405;57.012;40.984;2022-12-18T14:46:55;100123.16;;;-5.70;80.19
59391;BME280;53405;57.012;40.984;2022-12-18T14:49:44;100123.53;;;-5.60;79.39
59391;BME280;53405;57.012;40.984;2022-12-18T14:52:32;100109.28;;;-6.02;80.55
59391;BME280;53405;57.012;40.984;2022-12-18T14:55:21;100134.78;;;-5.99;80.45
59391;BME280;53405;57.012;40.984;2022-12-18T14:58:14;100118.53;;;-6.00;81.22
59391;BME280;53405;57.012;40.984;2022-12-18T15:01:03;100124.75;;;-5.86;81.17
59391;BME280;53405;57.012;40.984;2022-12-18T15:03:53;100135.78;;;-5.84;80.53
59391;BME280;53405;57.012;40.984;2022-12-18T15:06:41;100119.28;;;-5.97;81.10
59391;BME280;53405;57.012;40.984;2022-12-18T15:09:31;100151.78;;;-5.79;79.69
59391;BME280;53405;57.012;40.984;2022-12-18T15:12:25;100159.22;;;-5.92;80.60
59391;BME280;53405;57.012;40.984;2022-12-18T15:18:29;100154.84;;;-6.09;79.97
59391;BME280;53405;57.012;40.984;2022-12-18T15:21:19;100150.72;;;-6.11;81.02
59391;BME280;53405;57.012;40.984;2022-12-18T15:24:22;100158.00;;;-6.02;80.02
59391;BME280;53405;57.012;40.984;2022-12-18T15:27:28;100157.13;;;-6.22;79.83
59391;BME280;53405;57.012;40.984;2022-12-18T15:30:18;100163.38;;;-6.27;81.00
59391;BME280;53405;57.012;40.984;2022-12-18T15:33:27;100144.56;;;-6.28;81.10
59391;BME280;53405;57.012;40.984;2022-12-18T15:36:17;100158.44;;;-6.32;80.40
59391;BME280;53405;57.012;40.984;2022-12-18T15:39:05;100177.00;;;-6.27;80.92
59391;BME280;53405;57.012;40.984;2022-12-18T15:41:54;100182.69;;;-6.20;81.90
59391;BME280;53405;57.012;40.984;2022-12-18T15:45:17;100189.16;;;-6.11;81.42
59391;BME280;53405;57.012;40.984;2022-12-18T15:48:20;100181.53;;;-6.13;79.69
59391;BME280;53405;57.012;40.984;2022-12-18T15:51:29;100185.88;;;-6.15;80.90
59391;BME280;53405;57.012;40.984;2022-12-18T15:54:20;100197.13;;;-6.18;81.07
59391;BME280;53405;57.012;40.984;2022-12-18T15:57:26;100199.06;;;-6.23;80.90
59391;BME280;53405;57.012;40.984;2022-12-18T16:00:15;100192.53;;;-6.30;81.16
59391;BME280;53405;57.012;40.984;2022-12-18T16:03:03;100200.66;;;-6.20;81.27
59391;BME280;53405;57.012;40.984;2022-12-18T16:05:52;100214.81;;;-6.11;81.15
59391;BME280;53405;57.012;40.984;2022-12-18T16:08:40;100215.91;;;-6.17;81.53
59391;BME280;53405;57.012;40.984;2022-12-18T16:11:29;100228.97;;;-6.03;81.50
59391;BME280;53405;57.012;40.984;2022-12-18T16:14:31;100228.97;;;-6.03;80.98
59391;BME280;53405;57.012;40.984;2022-12-18T16:17:19;100230.34;;;-5.95;80.96
59391;BME280;53405;57.012;40.984;2022-12-18T16:20:12;100242.88;;;-6.08;80.99
59391;BME280;53405;57.012;40.984;2022-12-18T16:23:02;100249.34;;;-6.20;80.44
59391;BME280;53405;57.012;40.984;2022-12-18T16:25:49;100253.03;;;-6.26;80.86
59391;BME280;53405;57.012;40.984;2022-12-18T16:28:37;100269.75;;;-6.38;81.07
59391;BME280;53405;57.012;40.984;2022-12-18T16:31:25;100243.53;;;-6.44;81.07
59391;BME280;53405;57.012;40.984;2022-12-18T16:37:16;100270.25;;;-6.09;81.03
59391;BME280;53405;57.012;40.984;2022-12-18T16:40:04;100284.75;;;-6.08;81.45